Taloyoak Airport
CYYH : rendu visible

Aérodrome :











RETROUVEZ-NOUS SUR...

 
LOGIN :

S'inscrire | Disclaimer

   EN    FR    IT 

 









Légende :    VFR   VFR Marginal   IFR   IFR Intensif   IFR Très Intensif
Visi : 
Plafond : 
>= 8 km
>= 3000ft
5 à 8 km
1000 à 3000 ft
1500m à 5 km
500 à 1000 ft
800 à 1500m
200 à 500 ft
< 800m
< 200 ft
Symboles :   Orages  Brouillard  Fortes neiges  Fortes précipitations  Vent > 20 kt






- Altitude de l'aérodrome : 92 ft
- Code IATA : YYH


CYYH - Taloyoak

DERNIER METAR :
  • 121100Z 13008KT 12SM -SN FEW009 SCT010 BKN011 BKN015 BKN032 M22/M25 A2971 RMK SC1SC2SC2SC1SC1 SLP066

METARs EXPIRÉS :
  • 121000Z 13005KT 12SM -SN FEW015 SCT018 BKN032 M23/M26 A2973 RMK SC2SC2SC3 SLP072
  • 120900Z 14007KT 12SM -SN FEW012 SCT015 BKN018 BKN032 M22/M26 A2974 RMK NS1SC3SC2SC1 SLP076

TAF TAF CYYH
Valide du 12 à 06h jusqu'au 12 à 18h UTC


120538Z 1206/1218 16010KT P6SM FEW008 BKN012
TEMPO 1206/1209 4SM -SN BR BKN008 OVC012
FM120900 15008KT P6SM BKN015
TEMPO 1209/1218 P6SM -SN BKN025 RMK NXT FCST BY 121200Z



MET'MAP, la Météo Aéronautique d'un coup d'oeil ! - Copyright ORBIFLY Décembre 2007 - Disclaimer

ORBIFLY MET'MAP TEAM :

Programmation & Développement : Alexandra Zaïnal
Conception & Développement : Baudouin d'Aumeries
Co-Programmation & Développement : Marc-Olivier Méhu
Soutien technique & logistique : Manuel Goepfert

Contact : metmap@orbifly.com




SOURCES & CREDITS :

   NOAA       Earth
Advisory